Evansville Regional Airport
KEVV : now visible

Airfield :











YOU CAN JOIN US ON...

 
LOGIN :

Register | Disclaimer

   EN    FR    IT 

 









Legend :    VFR   Marginal VFR   IFR   Intensive IFR   Very Intensive IFR
Visi :
Ceiling :
>= 8 km
>= 3000ft
5 to 8 km
1000 to 3000 ft
1500m to 5 km
500 to 1000 ft
800 to 1500m
200 to 500 ft
< 800m
< 200 ft
Symbols :   Thunderstorms  Fog  Heavy snow  Heavy precipitations  Wind > 20 kt






- Airport Elevation : 418 ft
- IATA code : EVV


KEVV - Evansville Regional

CURRENT METAR :
  • 251954Z 06008KT 10SM -RA OVC006 03/01 A2970 RMK AO2 UPB08E15 SLP061 P0002 T00330011

EXPIRED METARs :
  • 251854Z 06010G19KT 5SM -RA BR BKN006 BKN046 OVC075 03/01 A2970 RMK AO2 WSHFT 1817 LTG DSNT E SLP061 P0023 T00280006 $
  • 251844Z 09012KT 3SM VCTS +RA BR BKN006 BKN046 OVC075 03/01 A2969 RMK AO2 WSHFT 1817 LTG DSNT E AND SE PRESFR P0019 T00280006 $
  • 251831Z 07012KT 3SM RA BR BKN006 BKN055 OVC075 03/01 A2975 RMK AO2 WSHFT 1817 P0015 T00280006 $
  • 251819Z 03011KT 2 1/2SM R22/4500VP6000FT +RA BR BKN006 BKN055 OVC075 03/01 A2978 RMK AO2 LTG DSNT E-SW PRESFR P0007 T00280006 $
  • 251813Z 02010KT 3SM RA BR BKN006 BKN050 OVC070 03/01 A2983 RMK AO2 LTG DSNT E-SW P0007 T00280006 $
  • 251754Z 02010G18KT 4SM VCTS RA BR BKN007 BKN013 OVC070 03/01 A2985 RMK AO2 LTG DSNT S-W SLP110 P0021 60113 T00280006 10033 20022 53018 $

TAF KEVV
Valid from the 25 at 18:00 until the 26 at 18:00 UTC


251757Z 2518/2618 07011G20KT 3SM RA BR OVC004
FM260000 10009KT 4SM BR VCSH OVC004
FM260600 VRB04KT 3SM BR OVC003
KZID FIR / North America



MET'MAP, your aeronautical weather chart ! - Copyright ORBIFLY December 2007 - Disclaimer

ORBIFLY MET'MAP TEAM :

Programming & Development : Alexandra Zaïnal
Concept & original design : Baudouin d'Aumeries
Assistance for programming : Marc-Olivier Méhu
Technical & hardware support : Manuel Goepfert

Contact : metmap@orbifly.com




SOURCES & CREDITS :

   NOAA       Earth
Advisory